sensor_id;sensor_type;location;lat;lon;timestamp;temperature;humidity
4697;DHT22;2362;50.780;0.292;2023-02-02T00:00:02;7.30;99.90
4697;DHT22;2362;50.780;0.292;2023-02-02T00:02:28;7.30;99.90
4697;DHT22;2362;50.780;0.292;2023-02-02T00:04:53;7.40;99.90
4697;DHT22;2362;50.780;0.292;2023-02-02T00:07:19;7.30;99.90
4697;DHT22;2362;50.780;0.292;2023-02-02T00:09:44;7.40;99.90
4697;DHT22;2362;50.780;0.292;2023-02-02T00:12:10;7.40;99.90
4697;DHT22;2362;50.780;0.292;2023-02-02T00:14:36;7.50;99.90
4697;DHT22;2362;50.780;0.292;2023-02-02T00:17:01;7.50;99.90
4697;DHT22;2362;50.780;0.292;2023-02-02T00:19:29;7.50;99.90
4697;DHT22;2362;50.780;0.292;2023-02-02T00:21:56;7.50;99.90
4697;DHT22;2362;50.780;0.292;2023-02-02T00:24:22;7.50;99.90
4697;DHT22;2362;50.780;0.292;2023-02-02T00:26:50;7.50;99.90
4697;DHT22;2362;50.780;0.292;2023-02-02T00:29:27;7.50;99.90
4697;DHT22;2362;50.780;0.292;2023-02-02T00:31:53;7.40;99.90
4697;DHT22;2362;50.780;0.292;2023-02-02T00:34:20;7.40;99.90
4697;DHT22;2362;50.780;0.292;2023-02-02T00:36:46;7.40;99.90
4697;DHT22;2362;50.780;0.292;2023-02-02T00:39:15;7.30;99.90
4697;DHT22;2362;50.780;0.292;2023-02-02T00:41:42;7.50;99.90
4697;DHT22;2362;50.780;0.292;2023-02-02T00:44:08;7.50;99.90
4697;DHT22;2362;50.780;0.292;2023-02-02T00:46:52;7.50;99.90
4697;DHT22;2362;50.780;0.292;2023-02-02T00:49:18;7.60;99.90
4697;DHT22;2362;50.780;0.292;2023-02-02T00:51:43;7.60;99.90
4697;DHT22;2362;50.780;0.292;2023-02-02T00:54:09;7.60;99.90
4697;DHT22;2362;50.780;0.292;2023-02-02T00:56:37;7.60;99.90
4697;DHT22;2362;50.780;0.292;2023-02-02T00:59:03;7.60;99.90
4697;DHT22;2362;50.780;0.292;2023-02-02T01:01:28;7.60;99.90
4697;DHT22;2362;50.780;0.292;2023-02-02T01:03:54;7.60;99.90
4697;DHT22;2362;50.780;0.292;2023-02-02T01:06:20;7.60;99.90
4697;DHT22;2362;50.780;0.292;2023-02-02T01:08:45;7.60;99.90
4697;DHT22;2362;50.780;0.292;2023-02-02T01:11:11;7.60;99.90
4697;DHT22;2362;50.780;0.292;2023-02-02T01:13:37;7.60;99.90
4697;DHT22;2362;50.780;0.292;2023-02-02T01:16:03;7.60;99.90
4697;DHT22;2362;50.780;0.292;2023-02-02T01:18:29;7.60;99.90
4697;DHT22;2362;50.780;0.292;2023-02-02T01:21:06;7.60;99.90
4697;DHT22;2362;50.780;0.292;2023-02-02T01:23:32;7.60;99.90
4697;DHT22;2362;50.780;0.292;2023-02-02T01:26:00;7.60;99.90
4697;DHT22;2362;50.780;0.292;2023-02-02T01:28:26;7.50;99.90
4697;DHT22;2362;50.780;0.292;2023-02-02T01:30:52;7.60;99.90
4697;DHT22;2362;50.780;0.292;2023-02-02T01:33:19;7.60;99.90
4697;DHT22;2362;50.780;0.292;2023-02-02T01:35:46;7.60;99.90
4697;DHT22;2362;50.780;0.292;2023-02-02T01:38:12;7.60;99.90
4697;DHT22;2362;50.780;0.292;2023-02-02T01:40:50;7.60;99.90
4697;DHT22;2362;50.780;0.292;2023-02-02T01:45:57;7.70;99.90
4697;DHT22;2362;50.780;0.292;2023-02-02T01:48:31;7.70;99.90
4697;DHT22;2362;50.780;0.292;2023-02-02T01:51:01;7.70;99.90
4697;DHT22;2362;50.780;0.292;2023-02-02T01:53:28;7.70;99.90
4697;DHT22;2362;50.780;0.292;2023-02-02T01:55:54;7.60;99.90
4697;DHT22;2362;50.780;0.292;2023-02-02T01:58:24;7.60;99.90
4697;DHT22;2362;50.780;0.292;2023-02-02T02:00:51;7.60;99.90
4697;DHT22;2362;50.780;0.292;2023-02-02T02:03:20;7.60;99.90
4697;DHT22;2362;50.780;0.292;2023-02-02T02:05:51;7.70;99.90
4697;DHT22;2362;50.780;0.292;2023-02-02T02:08:23;7.70;99.90
4697;DHT22;2362;50.780;0.292;2023-02-02T02:10:52;7.70;99.90
4697;DHT22;2362;50.780;0.292;2023-02-02T02:13:19;7.70;99.90
4697;DHT22;2362;50.780;0.292;2023-02-02T02:16:00;7.70;99.90
4697;DHT22;2362;50.780;0.292;2023-02-02T02:21:28;7.70;99.90
4697;DHT22;2362;50.780;0.292;2023-02-02T02:27:39;7.70;99.90
4697;DHT22;2362;50.780;0.292;2023-02-02T02:30:23;7.70;99.90
4697;DHT22;2362;50.780;0.292;2023-02-02T02:32:59;7.70;99.90
4697;DHT22;2362;50.780;0.292;2023-02-02T02:41:13;7.80;99.90
4697;DHT22;2362;50.780;0.292;2023-02-02T02:43:49;7.70;99.90
4697;DHT22;2362;50.780;0.292;2023-02-02T02:46:15;7.80;99.90
4697;DHT22;2362;50.780;0.292;2023-02-02T02:48:45;7.80;99.90
4697;DHT22;2362;50.780;0.292;2023-02-02T02:52:12;7.80;99.90
4697;DHT22;2362;50.780;0.292;2023-02-02T02:54:32;7.80;99.90
4697;DHT22;2362;50.780;0.292;2023-02-02T03:09:20;7.80;99.90
4697;DHT22;2362;50.780;0.292;2023-02-02T03:11:20;7.80;99.90
4697;DHT22;2362;50.780;0.292;2023-02-02T03:13:46;7.80;99.90
4697;DHT22;2362;50.780;0.292;2023-02-02T03:16:14;7.80;99.90
4697;DHT22;2362;50.780;0.292;2023-02-02T03:18:40;7.80;99.90
4697;DHT22;2362;50.780;0.292;2023-02-02T03:21:06;7.80;99.90
4697;DHT22;2362;50.780;0.292;2023-02-02T03:23:32;7.80;99.90
4697;DHT22;2362;50.780;0.292;2023-02-02T03:25:58;7.80;99.90
4697;DHT22;2362;50.780;0.292;2023-02-02T03:28:24;7.80;99.90
4697;DHT22;2362;50.780;0.292;2023-02-02T03:30:51;7.80;99.90
4697;DHT22;2362;50.780;0.292;2023-02-02T03:33:17;7.90;99.90
4697;DHT22;2362;50.780;0.292;2023-02-02T03:35:43;7.90;99.90
4697;DHT22;2362;50.780;0.292;2023-02-02T03:38:09;7.90;99.90
4697;DHT22;2362;50.780;0.292;2023-02-02T03:40:35;7.90;99.90
4697;DHT22;2362;50.780;0.292;2023-02-02T03:43:00;7.90;99.90
4697;DHT22;2362;50.780;0.292;2023-02-02T03:45:27;7.80;99.90
4697;DHT22;2362;50.780;0.292;2023-02-02T03:47:53;7.90;99.90
4697;DHT22;2362;50.780;0.292;2023-02-02T03:50:19;7.90;99.90
4697;DHT22;2362;50.780;0.292;2023-02-02T03:52:45;7.80;99.90
4697;DHT22;2362;50.780;0.292;2023-02-02T03:55:10;7.80;99.90
4697;DHT22;2362;50.780;0.292;2023-02-02T03:57:36;7.80;99.90
4697;DHT22;2362;50.780;0.292;2023-02-02T04:00:02;7.80;99.90
4697;DHT22;2362;50.780;0.292;2023-02-02T04:02:28;7.80;99.90
4697;DHT22;2362;50.780;0.292;2023-02-02T04:04:54;7.80;99.90
4697;DHT22;2362;50.780;0.292;2023-02-02T04:07:19;7.80;99.90
4697;DHT22;2362;50.780;0.292;2023-02-02T04:09:45;7.80;99.90
4697;DHT22;2362;50.780;0.292;2023-02-02T04:12:10;7.80;99.90
4697;DHT22;2362;50.780;0.292;2023-02-02T04:14:36;7.80;99.90
4697;DHT22;2362;50.780;0.292;2023-02-02T04:17:02;7.80;99.90
4697;DHT22;2362;50.780;0.292;2023-02-02T04:19:28;7.80;99.90
4697;DHT22;2362;50.780;0.292;2023-02-02T04:21:53;7.70;99.90
4697;DHT22;2362;50.780;0.292;2023-02-02T04:24:19;7.70;99.90
4697;DHT22;2362;50.780;0.292;2023-02-02T04:26:45;7.80;99.90
4697;DHT22;2362;50.780;0.292;2023-02-02T04:29:10;7.80;99.90
4697;DHT22;2362;50.780;0.292;2023-02-02T04:31:36;7.80;99.90
4697;DHT22;2362;50.780;0.292;2023-02-02T04:34:01;7.80;99.90
4697;DHT22;2362;50.780;0.292;2023-02-02T04:36:27;7.70;99.90
4697;DHT22;2362;50.780;0.292;2023-02-02T04:38:53;7.60;99.90
4697;DHT22;2362;50.780;0.292;2023-02-02T04:41:20;7.50;99.90
4697;DHT22;2362;50.780;0.292;2023-02-02T04:43:46;7.50;99.90
4697;DHT22;2362;50.780;0.292;2023-02-02T04:46:37;7.30;99.90
4697;DHT22;2362;50.780;0.292;2023-02-02T04:49:03;7.30;99.90
4697;DHT22;2362;50.780;0.292;2023-02-02T04:51:28;7.30;99.90
4697;DHT22;2362;50.780;0.292;2023-02-02T04:53:54;7.30;99.90
4697;DHT22;2362;50.780;0.292;2023-02-02T04:56:19;7.30;99.90
4697;DHT22;2362;50.780;0.292;2023-02-02T04:58:45;7.20;99.90
4697;DHT22;2362;50.780;0.292;2023-02-02T05:01:16;7.30;99.90
4697;DHT22;2362;50.780;0.292;2023-02-02T05:03:42;7.30;99.90
4697;DHT22;2362;50.780;0.292;2023-02-02T05:06:08;7.30;99.90
4697;DHT22;2362;50.780;0.292;2023-02-02T05:08:34;7.30;99.90
4697;DHT22;2362;50.780;0.292;2023-02-02T05:11:04;7.30;99.90
4697;DHT22;2362;50.780;0.292;2023-02-02T05:13:30;7.40;99.90
4697;DHT22;2362;50.780;0.292;2023-02-02T05:15:56;7.40;99.90
4697;DHT22;2362;50.780;0.292;2023-02-02T05:18:22;7.40;99.90
4697;DHT22;2362;50.780;0.292;2023-02-02T05:20:50;7.40;99.90
4697;DHT22;2362;50.780;0.292;2023-02-02T05:23:16;7.40;99.90
4697;DHT22;2362;50.780;0.292;2023-02-02T05:25:41;7.40;99.90
4697;DHT22;2362;50.780;0.292;2023-02-02T05:28:07;7.40;99.90
4697;DHT22;2362;50.780;0.292;2023-02-02T05:30:33;7.50;99.90
4697;DHT22;2362;50.780;0.292;2023-02-02T05:32:58;7.40;99.90
4697;DHT22;2362;50.780;0.292;2023-02-02T05:35:24;7.50;99.90
4697;DHT22;2362;50.780;0.292;2023-02-02T05:37:49;7.40;99.90
4697;DHT22;2362;50.780;0.292;2023-02-02T05:40:15;7.50;99.90
4697;DHT22;2362;50.780;0.292;2023-02-02T05:42:41;7.50;99.90
4697;DHT22;2362;50.780;0.292;2023-02-02T05:45:07;7.50;99.90
4697;DHT22;2362;50.780;0.292;2023-02-02T05:47:33;7.50;99.90
4697;DHT22;2362;50.780;0.292;2023-02-02T05:50:00;7.40;99.90
4697;DHT22;2362;50.780;0.292;2023-02-02T05:52:33;7.40;99.90
4697;DHT22;2362;50.780;0.292;2023-02-02T05:54:59;7.30;99.90
4697;DHT22;2362;50.780;0.292;2023-02-02T05:57:25;7.30;99.90
4697;DHT22;2362;50.780;0.292;2023-02-02T05:59:52;7.30;99.90
4697;DHT22;2362;50.780;0.292;2023-02-02T06:02:18;7.30;99.90
4697;DHT22;2362;50.780;0.292;2023-02-02T06:04:44;7.30;99.90
4697;DHT22;2362;50.780;0.292;2023-02-02T06:07:09;7.30;99.90
4697;DHT22;2362;50.780;0.292;2023-02-02T06:09:35;7.30;99.90
4697;DHT22;2362;50.780;0.292;2023-02-02T06:12:01;7.30;99.90
4697;DHT22;2362;50.780;0.292;2023-02-02T06:14:26;7.30;99.90
4697;DHT22;2362;50.780;0.292;2023-02-02T06:16:52;7.20;99.90
4697;DHT22;2362;50.780;0.292;2023-02-02T06:19:20;7.30;99.90
4697;DHT22;2362;50.780;0.292;2023-02-02T06:21:46;7.30;99.90
4697;DHT22;2362;50.780;0.292;2023-02-02T06:24:11;7.30;99.90
4697;DHT22;2362;50.780;0.292;2023-02-02T06:26:37;7.20;99.90
4697;DHT22;2362;50.780;0.292;2023-02-02T06:29:03;7.30;99.90
4697;DHT22;2362;50.780;0.292;2023-02-02T06:31:28;7.30;99.90
4697;DHT22;2362;50.780;0.292;2023-02-02T06:33:55;7.30;99.90
4697;DHT22;2362;50.780;0.292;2023-02-02T06:36:23;7.30;99.90
4697;DHT22;2362;50.780;0.292;2023-02-02T06:38:50;7.20;99.90
4697;DHT22;2362;50.780;0.292;2023-02-02T06:41:16;7.20;99.90
4697;DHT22;2362;50.780;0.292;2023-02-02T06:43:42;7.20;99.90
4697;DHT22;2362;50.780;0.292;2023-02-02T06:46:08;7.10;99.90
4697;DHT22;2362;50.780;0.292;2023-02-02T06:48:33;7.10;99.90
4697;DHT22;2362;50.780;0.292;2023-02-02T06:50:59;7.10;99.90
4697;DHT22;2362;50.780;0.292;2023-02-02T06:53:25;7.00;99.90
4697;DHT22;2362;50.780;0.292;2023-02-02T06:55:56;7.00;99.90
4697;DHT22;2362;50.780;0.292;2023-02-02T06:58:21;7.00;99.90
4697;DHT22;2362;50.780;0.292;2023-02-02T07:00:47;7.00;99.90
4697;DHT22;2362;50.780;0.292;2023-02-02T07:03:14;6.90;99.90
4697;DHT22;2362;50.780;0.292;2023-02-02T07:05:39;6.90;99.90
4697;DHT22;2362;50.780;0.292;2023-02-02T07:08:05;6.90;99.90
4697;DHT22;2362;50.780;0.292;2023-02-02T07:10:31;6.90;99.90
4697;DHT22;2362;50.780;0.292;2023-02-02T07:12:56;6.90;99.90
4697;DHT22;2362;50.780;0.292;2023-02-02T07:15:22;7.00;99.90
4697;DHT22;2362;50.780;0.292;2023-02-02T07:17:48;6.90;99.90
4697;DHT22;2362;50.780;0.292;2023-02-02T07:20:13;6.90;99.90
4697;DHT22;2362;50.780;0.292;2023-02-02T07:22:40;6.90;99.90
4697;DHT22;2362;50.780;0.292;2023-02-02T07:25:07;6.90;99.90
4697;DHT22;2362;50.780;0.292;2023-02-02T07:27:33;6.90;99.90
4697;DHT22;2362;50.780;0.292;2023-02-02T07:29:59;6.90;99.90
4697;DHT22;2362;50.780;0.292;2023-02-02T07:32:25;7.00;99.90
4697;DHT22;2362;50.780;0.292;2023-02-02T07:34:50;7.00;99.90
4697;DHT22;2362;50.780;0.292;2023-02-02T07:37:16;7.10;99.90
4697;DHT22;2362;50.780;0.292;2023-02-02T07:39:42;7.20;99.90
4697;DHT22;2362;50.780;0.292;2023-02-02T07:42:11;7.20;99.90
4697;DHT22;2362;50.780;0.292;2023-02-02T07:44:37;7.30;99.90
4697;DHT22;2362;50.780;0.292;2023-02-02T07:47:04;7.20;99.90
4697;DHT22;2362;50.780;0.292;2023-02-02T07:49:30;7.20;99.90
4697;DHT22;2362;50.780;0.292;2023-02-02T07:51:55;7.20;99.90
4697;DHT22;2362;50.780;0.292;2023-02-02T07:54:22;7.30;99.90
4697;DHT22;2362;50.780;0.292;2023-02-02T07:56:47;7.30;99.90
4697;DHT22;2362;50.780;0.292;2023-02-02T07:59:13;7.20;99.90
4697;DHT22;2362;50.780;0.292;2023-02-02T08:01:39;7.30;99.90
4697;DHT22;2362;50.780;0.292;2023-02-02T08:04:05;7.30;99.90
4697;DHT22;2362;50.780;0.292;2023-02-02T08:06:38;7.30;99.90
4697;DHT22;2362;50.780;0.292;2023-02-02T08:09:06;7.40;99.90
4697;DHT22;2362;50.780;0.292;2023-02-02T08:11:36;7.40;99.90
4697;DHT22;2362;50.780;0.292;2023-02-02T08:14:03;7.40;99.90
4697;DHT22;2362;50.780;0.292;2023-02-02T08:16:33;7.40;99.90
4697;DHT22;2362;50.780;0.292;2023-02-02T08:18:59;7.50;99.90
4697;DHT22;2362;50.780;0.292;2023-02-02T08:21:25;7.50;99.90
4697;DHT22;2362;50.780;0.292;2023-02-02T08:23:51;7.60;99.90
4697;DHT22;2362;50.780;0.292;2023-02-02T08:28:46;7.60;99.90
4697;DHT22;2362;50.780;0.292;2023-02-02T08:31:18;7.60;99.90
4697;DHT22;2362;50.780;0.292;2023-02-02T08:33:44;7.70;99.90
4697;DHT22;2362;50.780;0.292;2023-02-02T08:36:14;7.70;99.90
4697;DHT22;2362;50.780;0.292;2023-02-02T08:38:40;7.80;99.90
4697;DHT22;2362;50.780;0.292;2023-02-02T08:41:07;7.80;99.90
4697;DHT22;2362;50.780;0.292;2023-02-02T08:43:34;7.90;99.90
4697;DHT22;2362;50.780;0.292;2023-02-02T08:46:00;7.90;99.90
4697;DHT22;2362;50.780;0.292;2023-02-02T08:48:26;8.00;99.90
4697;DHT22;2362;50.780;0.292;2023-02-02T08:50:56;8.00;99.90
4697;DHT22;2362;50.780;0.292;2023-02-02T08:53:23;8.00;99.90
4697;DHT22;2362;50.780;0.292;2023-02-02T08:56:03;8.00;99.90
4697;DHT22;2362;50.780;0.292;2023-02-02T08:58:30;8.00;99.90
4697;DHT22;2362;50.780;0.292;2023-02-02T09:01:07;8.10;99.90
4697;DHT22;2362;50.780;0.292;2023-02-02T09:03:33;8.20;99.90
4697;DHT22;2362;50.780;0.292;2023-02-02T09:06:07;8.20;99.90
4697;DHT22;2362;50.780;0.292;2023-02-02T09:08:34;8.30;99.90
4697;DHT22;2362;50.780;0.292;2023-02-02T09:11:07;8.40;99.90
4697;DHT22;2362;50.780;0.292;2023-02-02T09:13:34;8.40;99.90
4697;DHT22;2362;50.780;0.292;2023-02-02T09:16:01;8.50;99.90
4697;DHT22;2362;50.780;0.292;2023-02-02T09:18:27;8.60;99.90
4697;DHT22;2362;50.780;0.292;2023-02-02T09:20:53;8.60;99.90
4697;DHT22;2362;50.780;0.292;2023-02-02T09:23:19;8.70;99.90
4697;DHT22;2362;50.780;0.292;2023-02-02T09:25:45;8.70;99.90
4697;DHT22;2362;50.780;0.292;2023-02-02T09:28:11;8.70;99.90
4697;DHT22;2362;50.780;0.292;2023-02-02T09:30:37;8.80;99.90
4697;DHT22;2362;50.780;0.292;2023-02-02T09:33:03;8.80;99.90
4697;DHT22;2362;50.780;0.292;2023-02-02T09:35:29;8.80;99.90
4697;DHT22;2362;50.780;0.292;2023-02-02T09:37:55;8.80;99.90
4697;DHT22;2362;50.780;0.292;2023-02-02T09:40:20;8.80;99.90
4697;DHT22;2362;50.780;0.292;2023-02-02T09:45:46;8.90;99.90
4697;DHT22;2362;50.780;0.292;2023-02-02T09:48:43;9.00;99.90
4697;DHT22;2362;50.780;0.292;2023-02-02T09:51:17;9.10;99.90
4697;DHT22;2362;50.780;0.292;2023-02-02T09:53:52;9.10;99.90
4697;DHT22;2362;50.780;0.292;2023-02-02T09:56:25;9.10;99.90
4697;DHT22;2362;50.780;0.292;2023-02-02T09:58:54;9.10;99.90
4697;DHT22;2362;50.780;0.292;2023-02-02T10:01:30;9.00;99.90
4697;DHT22;2362;50.780;0.292;2023-02-02T10:06:46;9.00;99.90
4697;DHT22;2362;50.780;0.292;2023-02-02T10:15:03;9.10;99.90
4697;DHT22;2362;50.780;0.292;2023-02-02T10:20:32;9.10;99.90
4697;DHT22;2362;50.780;0.292;2023-02-02T10:26:15;9.30;99.90
4697;DHT22;2362;50.780;0.292;2023-02-02T10:29:07;9.40;99.90
4697;DHT22;2362;50.780;0.292;2023-02-02T10:32:09;9.50;99.90
4697;DHT22;2362;50.780;0.292;2023-02-02T10:34:41;9.70;99.90
4697;DHT22;2362;50.780;0.292;2023-02-02T10:45:15;9.80;99.90
4697;DHT22;2362;50.780;0.292;2023-02-02T10:47:42;9.60;99.90
4697;DHT22;2362;50.780;0.292;2023-02-02T10:50:19;9.60;99.90
4697;DHT22;2362;50.780;0.292;2023-02-02T10:52:52;9.50;99.90
4697;DHT22;2362;50.780;0.292;2023-02-02T10:58:02;9.60;99.90
4697;DHT22;2362;50.780;0.292;2023-02-02T11:03:17;9.40;99.90
4697;DHT22;2362;50.780;0.292;2023-02-02T11:05:44;9.40;99.90
4697;DHT22;2362;50.780;0.292;2023-02-02T11:11:15;9.40;99.90
4697;DHT22;2362;50.780;0.292;2023-02-02T11:13:52;9.50;99.90
4697;DHT22;2362;50.780;0.292;2023-02-02T11:16:22;9.70;99.90
4697;DHT22;2362;50.780;0.292;2023-02-02T11:18:48;9.80;99.90
4697;DHT22;2362;50.780;0.292;2023-02-02T11:21:34;9.70;99.90
4697;DHT22;2362;50.780;0.292;2023-02-02T11:24:21;9.80;99.90
4697;DHT22;2362;50.780;0.292;2023-02-02T11:29:52;9.80;99.90
4697;DHT22;2362;50.780;0.292;2023-02-02T11:37:29;10.20;99.90
4697;DHT22;2362;50.780;0.292;2023-02-02T11:42:49;10.40;99.90
4697;DHT22;2362;50.780;0.292;2023-02-02T11:45:36;10.30;99.90
4697;DHT22;2362;50.780;0.292;2023-02-02T11:48:15;10.30;99.90
4697;DHT22;2362;50.780;0.292;2023-02-02T11:50:51;10.40;99.90
4697;DHT22;2362;50.780;0.292;2023-02-02T11:55:56;10.50;99.90
4697;DHT22;2362;50.780;0.292;2023-02-02T11:58:27;10.60;99.90
4697;DHT22;2362;50.780;0.292;2023-02-02T12:00:56;10.60;99.90
4697;DHT22;2362;50.780;0.292;2023-02-02T12:03:43;10.60;99.90
4697;DHT22;2362;50.780;0.292;2023-02-02T12:06:24;10.60;99.90
4697;DHT22;2362;50.780;0.292;2023-02-02T12:08:54;10.60;99.90
4697;DHT22;2362;50.780;0.292;2023-02-02T12:14:17;10.70;99.90
4697;DHT22;2362;50.780;0.292;2023-02-02T12:19:40;10.80;99.90
4697;DHT22;2362;50.780;0.292;2023-02-02T12:22:34;10.60;99.90
4697;DHT22;2362;50.780;0.292;2023-02-02T12:31:38;10.30;99.90
4697;DHT22;2362;50.780;0.292;2023-02-02T12:33:49;10.20;99.90
4697;DHT22;2362;50.780;0.292;2023-02-02T12:36:20;10.30;99.90
4697;DHT22;2362;50.780;0.292;2023-02-02T12:47:03;10.20;99.90
4697;DHT22;2362;50.780;0.292;2023-02-02T12:52:15;10.20;99.90
4697;DHT22;2362;50.780;0.292;2023-02-02T12:57:29;10.20;99.90
4697;DHT22;2362;50.780;0.292;2023-02-02T13:08:43;10.40;99.90
4697;DHT22;2362;50.780;0.292;2023-02-02T13:11:15;10.40;99.90
4697;DHT22;2362;50.780;0.292;2023-02-02T13:16:34;10.40;99.90
4697;DHT22;2362;50.780;0.292;2023-02-02T13:19:06;10.30;99.90
4697;DHT22;2362;50.780;0.292;2023-02-02T13:21:33;10.30;99.90
4697;DHT22;2362;50.780;0.292;2023-02-02T13:24:02;10.30;99.90
4697;DHT22;2362;50.780;0.292;2023-02-02T13:26:38;10.30;99.90
4697;DHT22;2362;50.780;0.292;2023-02-02T13:34:22;10.30;99.90
4697;DHT22;2362;50.780;0.292;2023-02-02T13:39:57;10.30;99.90
4697;DHT22;2362;50.780;0.292;2023-02-02T13:45:45;10.20;99.90
4697;DHT22;2362;50.780;0.292;2023-02-02T13:48:50;10.20;99.90
4697;DHT22;2362;50.780;0.292;2023-02-02T14:00:45;10.20;99.90
4697;DHT22;2362;50.780;0.292;2023-02-02T14:03:25;10.20;99.90
4697;DHT22;2362;50.780;0.292;2023-02-02T14:06:11;10.30;99.90
4697;DHT22;2362;50.780;0.292;2023-02-02T14:11:41;10.20;99.90
4697;DHT22;2362;50.780;0.292;2023-02-02T14:14:18;10.30;99.90
4697;DHT22;2362;50.780;0.292;2023-02-02T14:22:17;10.30;99.90
4697;DHT22;2362;50.780;0.292;2023-02-02T14:24:50;10.20;99.90
4697;DHT22;2362;50.780;0.292;2023-02-02T14:34:53;10.10;99.90
4697;DHT22;2362;50.780;0.292;2023-02-02T14:45:48;10.00;99.90
4697;DHT22;2362;50.780;0.292;2023-02-02T14:48:33;10.00;99.90
4697;DHT22;2362;50.780;0.292;2023-02-02T14:51:00;10.00;99.90
4697;DHT22;2362;50.780;0.292;2023-02-02T14:53:32;10.00;99.90
4697;DHT22;2362;50.780;0.292;2023-02-02T14:56:00;10.00;99.90
4697;DHT22;2362;50.780;0.292;2023-02-02T14:58:40;10.00;99.90
4697;DHT22;2362;50.780;0.292;2023-02-02T15:06:36;9.90;99.90
4697;DHT22;2362;50.780;0.292;2023-02-02T15:23:05;10.00;99.90
4697;DHT22;2362;50.780;0.292;2023-02-02T15:31:01;9.90;99.90
4697;DHT22;2362;50.780;0.292;2023-02-02T15:33:36;9.90;99.90
4697;DHT22;2362;50.780;0.292;2023-02-02T15:36:09;9.90;99.90
4697;DHT22;2362;50.780;0.292;2023-02-02T15:38:39;9.80;99.90
4697;DHT22;2362;50.780;0.292;2023-02-02T15:41:26;9.70;99.90
4697;DHT22;2362;50.780;0.292;2023-02-02T15:43:52;9.70;99.90
4697;DHT22;2362;50.780;0.292;2023-02-02T15:46:22;9.60;99.90
4697;DHT22;2362;50.780;0.292;2023-02-02T15:51:52;9.60;99.90
4697;DHT22;2362;50.780;0.292;2023-02-02T15:54:23;9.60;99.90
4697;DHT22;2362;50.780;0.292;2023-02-02T15:56:50;9.60;99.90
4697;DHT22;2362;50.780;0.292;2023-02-02T15:59:23;9.50;99.90
4697;DHT22;2362;50.780;0.292;2023-02-02T16:02:04;9.50;99.90
4697;DHT22;2362;50.780;0.292;2023-02-02T16:04:41;9.50;99.90
4697;DHT22;2362;50.780;0.292;2023-02-02T16:07:17;9.50;99.90
4697;DHT22;2362;50.780;0.292;2023-02-02T16:09:44;9.50;99.90
4697;DHT22;2362;50.780;0.292;2023-02-02T16:12:18;9.50;99.90
4697;DHT22;2362;50.780;0.292;2023-02-02T16:14:46;9.50;99.90
4697;DHT22;2362;50.780;0.292;2023-02-02T16:17:30;9.50;99.90
4697;DHT22;2362;50.780;0.292;2023-02-02T16:20:14;9.50;99.90
4697;DHT22;2362;50.780;0.292;2023-02-02T16:22:43;9.50;99.90
4697;DHT22;2362;50.780;0.292;2023-02-02T16:25:15;9.50;99.90
4697;DHT22;2362;50.780;0.292;2023-02-02T16:27:45;9.50;99.90
4697;DHT22;2362;50.780;0.292;2023-02-02T16:30:25;9.40;99.90
4697;DHT22;2362;50.780;0.292;2023-02-02T16:32:51;9.40;99.90
4697;DHT22;2362;50.780;0.292;2023-02-02T16:35:43;9.30;99.90
4697;DHT22;2362;50.780;0.292;2023-02-02T16:41:11;9.30;99.90
4697;DHT22;2362;50.780;0.292;2023-02-02T16:43:39;9.30;99.90
4697;DHT22;2362;50.780;0.292;2023-02-02T16:46:06;9.20;99.90
4697;DHT22;2362;50.780;0.292;2023-02-02T16:48:45;9.30;99.90
4697;DHT22;2362;50.780;0.292;2023-02-02T16:53:46;9.30;99.90
4697;DHT22;2362;50.780;0.292;2023-02-02T16:56:38;9.30;99.90
4697;DHT22;2362;50.780;0.292;2023-02-02T16:59:23;9.30;99.90
4697;DHT22;2362;50.780;0.292;2023-02-02T17:02:03;9.30;99.90
4697;DHT22;2362;50.780;0.292;2023-02-02T17:04:36;9.30;99.90
4697;DHT22;2362;50.780;0.292;2023-02-02T17:07:12;9.40;99.90
4697;DHT22;2362;50.780;0.292;2023-02-02T17:09:44;9.40;99.90
4697;DHT22;2362;50.780;0.292;2023-02-02T17:14:58;9.40;99.90
4697;DHT22;2362;50.780;0.292;2023-02-02T17:17:26;9.40;99.90
4697;DHT22;2362;50.780;0.292;2023-02-02T17:19:52;9.40;99.90
4697;DHT22;2362;50.780;0.292;2023-02-02T17:22:22;9.40;99.90
4697;DHT22;2362;50.780;0.292;2023-02-02T17:24:50;9.40;99.90
4697;DHT22;2362;50.780;0.292;2023-02-02T17:27:36;9.40;99.90
4697;DHT22;2362;50.780;0.292;2023-02-02T17:30:03;9.40;99.90
4697;DHT22;2362;50.780;0.292;2023-02-02T17:32:29;9.40;99.90
4697;DHT22;2362;50.780;0.292;2023-02-02T17:34:55;9.40;99.90
4697;DHT22;2362;50.780;0.292;2023-02-02T17:37:21;9.40;99.90
4697;DHT22;2362;50.780;0.292;2023-02-02T17:39:46;9.40;99.90
4697;DHT22;2362;50.780;0.292;2023-02-02T17:42:25;9.40;99.90
4697;DHT22;2362;50.780;0.292;2023-02-02T17:44:51;9.30;99.90
4697;DHT22;2362;50.780;0.292;2023-02-02T17:47:17;9.40;99.90
4697;DHT22;2362;50.780;0.292;2023-02-02T17:49:43;9.40;99.90
4697;DHT22;2362;50.780;0.292;2023-02-02T17:52:09;9.40;99.90
4697;DHT22;2362;50.780;0.292;2023-02-02T17:54:34;9.40;99.90
4697;DHT22;2362;50.780;0.292;2023-02-02T17:57:02;9.40;99.90
4697;DHT22;2362;50.780;0.292;2023-02-02T17:59:27;9.40;99.90
4697;DHT22;2362;50.780;0.292;2023-02-02T18:01:53;9.40;99.90
4697;DHT22;2362;50.780;0.292;2023-02-02T18:04:20;9.40;99.90
4697;DHT22;2362;50.780;0.292;2023-02-02T18:06:46;9.40;99.90
4697;DHT22;2362;50.780;0.292;2023-02-02T18:09:12;9.40;99.90
4697;DHT22;2362;50.780;0.292;2023-02-02T18:11:39;9.40;99.90
4697;DHT22;2362;50.780;0.292;2023-02-02T18:14:04;9.40;99.90
4697;DHT22;2362;50.780;0.292;2023-02-02T18:16:30;9.40;99.90
4697;DHT22;2362;50.780;0.292;2023-02-02T18:18:56;9.40;99.90
4697;DHT22;2362;50.780;0.292;2023-02-02T18:21:23;9.40;99.90
4697;DHT22;2362;50.780;0.292;2023-02-02T18:23:51;9.40;99.90
4697;DHT22;2362;50.780;0.292;2023-02-02T18:26:19;9.40;99.90
4697;DHT22;2362;50.780;0.292;2023-02-02T18:28:47;9.40;99.90
4697;DHT22;2362;50.780;0.292;2023-02-02T18:31:15;9.40;99.90
4697;DHT22;2362;50.780;0.292;2023-02-02T18:33:41;9.40;99.90
4697;DHT22;2362;50.780;0.292;2023-02-02T18:36:14;9.30;99.90
4697;DHT22;2362;50.780;0.292;2023-02-02T18:38:41;9.30;99.90
4697;DHT22;2362;50.780;0.292;2023-02-02T18:41:09;9.30;99.90
4697;DHT22;2362;50.780;0.292;2023-02-02T18:43:35;9.20;99.90
4697;DHT22;2362;50.780;0.292;2023-02-02T18:46:02;9.20;99.90
4697;DHT22;2362;50.780;0.292;2023-02-02T18:48:29;9.20;99.90
4697;DHT22;2362;50.780;0.292;2023-02-02T18:50:56;9.20;99.90
4697;DHT22;2362;50.780;0.292;2023-02-02T18:53:22;9.20;99.90
4697;DHT22;2362;50.780;0.292;2023-02-02T18:55:48;9.20;99.90
4697;DHT22;2362;50.780;0.292;2023-02-02T18:58:14;9.20;99.90
4697;DHT22;2362;50.780;0.292;2023-02-02T19:00:41;9.20;99.90
4697;DHT22;2362;50.780;0.292;2023-02-02T19:03:07;9.20;99.90
4697;DHT22;2362;50.780;0.292;2023-02-02T19:05:32;9.20;99.90
4697;DHT22;2362;50.780;0.292;2023-02-02T19:08:17;9.20;99.90
4697;DHT22;2362;50.780;0.292;2023-02-02T19:10:42;9.20;99.90
4697;DHT22;2362;50.780;0.292;2023-02-02T19:13:18;9.30;99.90
4697;DHT22;2362;50.780;0.292;2023-02-02T19:15:46;9.30;99.90
4697;DHT22;2362;50.780;0.292;2023-02-02T19:18:14;9.30;99.90
4697;DHT22;2362;50.780;0.292;2023-02-02T19:20:41;9.40;99.90
4697;DHT22;2362;50.780;0.292;2023-02-02T19:23:12;9.40;99.90
4697;DHT22;2362;50.780;0.292;2023-02-02T19:25:43;9.30;99.90
4697;DHT22;2362;50.780;0.292;2023-02-02T19:28:24;9.40;99.90
4697;DHT22;2362;50.780;0.292;2023-02-02T19:30:58;9.40;99.90
4697;DHT22;2362;50.780;0.292;2023-02-02T19:33:37;9.40;99.90
4697;DHT22;2362;50.780;0.292;2023-02-02T19:36:20;9.40;99.90
4697;DHT22;2362;50.780;0.292;2023-02-02T19:38:48;9.40;99.90
4697;DHT22;2362;50.780;0.292;2023-02-02T19:41:18;9.40;99.90
4697;DHT22;2362;50.780;0.292;2023-02-02T19:43:46;9.40;99.90
4697;DHT22;2362;50.780;0.292;2023-02-02T19:46:18;9.40;99.90